sensor_id;sensor_type;location;lat;lon;timestamp;pressure;altitude;pressure_sealevel;temperature;humidity
84677;BME280;74901;55.024;73.254;2024-01-15T00:00:08;100850.16;;;-22.15;73.68
84677;BME280;74901;55.024;73.254;2024-01-15T00:02:41;100873.59;;;-22.15;72.96
84677;BME280;74901;55.024;73.254;2024-01-15T00:05:10;100867.94;;;-22.18;73.51
84677;BME280;74901;55.024;73.254;2024-01-15T00:07:40;100868.28;;;-22.21;73.42
84677;BME280;74901;55.024;73.254;2024-01-15T00:10:09;100860.81;;;-22.25;73.28
84677;BME280;74901;55.024;73.254;2024-01-15T00:12:39;100847.22;;;-22.43;73.24
84677;BME280;74901;55.024;73.254;2024-01-15T00:15:07;100867.34;;;-22.29;73.13
84677;BME280;74901;55.024;73.254;2024-01-15T00:17:36;100876.47;;;-22.33;73.15
84677;BME280;74901;55.024;73.254;2024-01-15T00:20:08;100889.84;;;-22.36;73.62
84677;BME280;74901;55.024;73.254;2024-01-15T00:22:37;100878.78;;;-22.38;73.18
84677;BME280;74901;55.024;73.254;2024-01-15T00:25:06;100883.69;;;-22.43;73.08
84677;BME280;74901;55.024;73.254;2024-01-15T00:27:38;100900.81;;;-22.48;73.68
84677;BME280;74901;55.024;73.254;2024-01-15T00:30:08;100904.25;;;-22.56;73.47
84677;BME280;74901;55.024;73.254;2024-01-15T00:32:37;100904.59;;;-22.59;73.63
84677;BME280;74901;55.024;73.254;2024-01-15T00:35:08;100916.13;;;-22.61;73.73
84677;BME280;74901;55.024;73.254;2024-01-15T00:37:37;100916.31;;;-22.63;73.43
84677;BME280;74901;55.024;73.254;2024-01-15T00:40:07;100925.44;;;-22.67;73.32
84677;BME280;74901;55.024;73.254;2024-01-15T00:42:36;100921.19;;;-22.68;73.68
84677;BME280;74901;55.024;73.254;2024-01-15T00:45:06;100920.13;;;-22.74;73.60
84677;BME280;74901;55.024;73.254;2024-01-15T00:47:37;100930.53;;;-22.74;73.60
84677;BME280;74901;55.024;73.254;2024-01-15T00:50:09;100946.66;;;-22.78;73.20
84677;BME280;74901;55.024;73.254;2024-01-15T00:52:38;100952.16;;;-22.81;73.80
84677;BME280;74901;55.024;73.254;2024-01-15T00:55:07;100953.34;;;-22.84;73.75
84677;BME280;74901;55.024;73.254;2024-01-15T00:57:36;100953.50;;;-22.85;73.50
84677;BME280;74901;55.024;73.254;2024-01-15T01:00:06;100949.41;;;-22.88;73.97
84677;BME280;74901;55.024;73.254;2024-01-15T01:02:35;100926.03;;;-23.04;73.36
84677;BME280;74901;55.024;73.254;2024-01-15T01:05:05;100952.38;;;-22.91;73.63
84677;BME280;74901;55.024;73.254;2024-01-15T01:07:35;100933.81;;;-22.96;73.76
84677;BME280;74901;55.024;73.254;2024-01-15T01:10:06;100947.13;;;-22.83;73.75
84677;BME280;74901;55.024;73.254;2024-01-15T01:12:35;100968.28;;;-22.86;73.15
84677;BME280;74901;55.024;73.254;2024-01-15T01:15:04;100973.50;;;-22.86;73.81
84677;BME280;74901;55.024;73.254;2024-01-15T01:17:33;100961.81;;;-22.90;73.06
84677;BME280;74901;55.024;73.254;2024-01-15T01:20:03;100967.81;;;-22.89;73.41
84677;BME280;74901;55.024;73.254;2024-01-15T01:22:36;100955.44;;;-23.12;73.64
84677;BME280;74901;55.024;73.254;2024-01-15T01:25:07;100982.78;;;-22.91;73.72
84677;BME280;74901;55.024;73.254;2024-01-15T01:27:36;100995.78;;;-22.91;73.83
84677;BME280;74901;55.024;73.254;2024-01-15T01:30:06;101000.50;;;-22.95;73.40
84677;BME280;74901;55.024;73.254;2024-01-15T01:32:35;101006.34;;;-22.93;73.35
84677;BME280;74901;55.024;73.254;2024-01-15T01:35:07;100999.53;;;-22.94;73.48
84677;BME280;74901;55.024;73.254;2024-01-15T01:37:37;100998.88;;;-22.96;73.91
84677;BME280;74901;55.024;73.254;2024-01-15T01:40:07;100997.41;;;-22.98;73.60
84677;BME280;74901;55.024;73.254;2024-01-15T01:42:37;101009.75;;;-23.00;73.98
84677;BME280;74901;55.024;73.254;2024-01-15T01:45:06;101016.59;;;-22.99;73.26
84677;BME280;74901;55.024;73.254;2024-01-15T01:50:52;101020.00;;;-23.07;73.11
84677;BME280;74901;55.024;73.254;2024-01-15T01:53:24;101039.03;;;-22.98;73.69
84677;BME280;74901;55.024;73.254;2024-01-15T01:55:53;101029.94;;;-23.02;73.73
84677;BME280;74901;55.024;73.254;2024-01-15T01:58:22;101027.81;;;-23.07;73.42
84677;BME280;74901;55.024;73.254;2024-01-15T02:00:52;101024.38;;;-23.08;73.78
84677;BME280;74901;55.024;73.254;2024-01-15T02:03:21;101033.19;;;-23.00;73.14
84677;BME280;74901;55.024;73.254;2024-01-15T02:05:51;101031.41;;;-23.00;73.05
84677;BME280;74901;55.024;73.254;2024-01-15T02:08:20;101022.97;;;-23.02;72.83
84677;BME280;74901;55.024;73.254;2024-01-15T02:10:50;101037.09;;;-23.04;73.33
84677;BME280;74901;55.024;73.254;2024-01-15T02:13:22;101035.47;;;-23.06;73.43
84677;BME280;74901;55.024;73.254;2024-01-15T02:15:51;101042.59;;;-23.08;73.67
84677;BME280;74901;55.024;73.254;2024-01-15T02:18:19;101049.94;;;-23.11;73.64
84677;BME280;74901;55.024;73.254;2024-01-15T02:20:48;101053.19;;;-23.17;73.71
84677;BME280;74901;55.024;73.254;2024-01-15T02:23:19;101058.53;;;-23.27;73.53
84677;BME280;74901;55.024;73.254;2024-01-15T02:25:47;101066.66;;;-23.22;73.80
84677;BME280;74901;55.024;73.254;2024-01-15T02:28:16;101051.38;;;-23.33;73.49
84677;BME280;74901;55.024;73.254;2024-01-15T02:30:46;101068.59;;;-23.24;73.75
84677;BME280;74901;55.024;73.254;2024-01-15T02:33:15;101064.56;;;-23.26;73.38
84677;BME280;74901;55.024;73.254;2024-01-15T02:35:44;101072.03;;;-23.23;73.35
84677;BME280;74901;55.024;73.254;2024-01-15T02:38:19;101075.91;;;-23.19;73.21
84677;BME280;74901;55.024;73.254;2024-01-15T02:40:47;101078.53;;;-23.19;73.01
84677;BME280;74901;55.024;73.254;2024-01-15T02:43:17;101069.56;;;-23.33;73.58
84677;BME280;74901;55.024;73.254;2024-01-15T02:45:47;101089.41;;;-23.24;73.17
84677;BME280;74901;55.024;73.254;2024-01-15T02:48:19;101084.53;;;-23.35;73.28
84677;BME280;74901;55.024;73.254;2024-01-15T02:50:48;101117.53;;;-23.27;73.36
84677;BME280;74901;55.024;73.254;2024-01-15T02:53:18;101132.19;;;-23.26;73.71
84677;BME280;74901;55.024;73.254;2024-01-15T02:55:47;101135.75;;;-23.27;73.03
84677;BME280;74901;55.024;73.254;2024-01-15T02:58:16;101129.06;;;-23.30;73.47
84677;BME280;74901;55.024;73.254;2024-01-15T03:00:45;101139.16;;;-23.27;73.79
84677;BME280;74901;55.024;73.254;2024-01-15T03:03:14;101143.56;;;-23.27;73.83
84677;BME280;74901;55.024;73.254;2024-01-15T03:05:43;101158.34;;;-23.28;72.98
84677;BME280;74901;55.024;73.254;2024-01-15T03:08:13;101169.72;;;-23.29;73.30
84677;BME280;74901;55.024;73.254;2024-01-15T03:10:44;101160.44;;;-23.31;73.53
84677;BME280;74901;55.024;73.254;2024-01-15T03:13:14;101165.13;;;-23.35;73.06
84677;BME280;74901;55.024;73.254;2024-01-15T03:15:43;101162.03;;;-23.38;73.53
84677;BME280;74901;55.024;73.254;2024-01-15T03:18:12;101173.25;;;-23.38;73.01
84677;BME280;74901;55.024;73.254;2024-01-15T03:20:41;101178.44;;;-23.38;73.13
84677;BME280;74901;55.024;73.254;2024-01-15T03:23:10;101163.97;;;-23.40;73.77
84677;BME280;74901;55.024;73.254;2024-01-15T03:25:39;101164.47;;;-23.37;73.70
84677;BME280;74901;55.024;73.254;2024-01-15T03:28:09;101150.63;;;-23.45;73.60
84677;BME280;74901;55.024;73.254;2024-01-15T03:30:37;101162.88;;;-23.30;73.65
84677;BME280;74901;55.024;73.254;2024-01-15T03:33:06;101167.59;;;-23.25;73.62
84677;BME280;74901;55.024;73.254;2024-01-15T03:35:35;101175.78;;;-23.20;73.22
84677;BME280;74901;55.024;73.254;2024-01-15T03:38:04;101165.84;;;-23.17;73.32
84677;BME280;74901;55.024;73.254;2024-01-15T03:40:33;101173.81;;;-23.18;72.70
84677;BME280;74901;55.024;73.254;2024-01-15T03:43:03;101183.44;;;-23.11;72.63
84677;BME280;74901;55.024;73.254;2024-01-15T03:45:33;101181.50;;;-23.09;72.92
84677;BME280;74901;55.024;73.254;2024-01-15T03:48:02;101186.22;;;-23.04;72.78
84677;BME280;74901;55.024;73.254;2024-01-15T03:50:32;101204.28;;;-23.02;72.49
84677;BME280;74901;55.024;73.254;2024-01-15T03:53:00;101195.63;;;-23.11;72.75
84677;BME280;74901;55.024;73.254;2024-01-15T03:55:29;101199.22;;;-23.04;72.50
84677;BME280;74901;55.024;73.254;2024-01-15T03:57:59;101196.97;;;-22.99;73.00
84677;BME280;74901;55.024;73.254;2024-01-15T04:00:28;101198.28;;;-22.95;72.75
84677;BME280;74901;55.024;73.254;2024-01-15T04:02:59;101202.06;;;-22.89;72.88
84677;BME280;74901;55.024;73.254;2024-01-15T04:05:27;101209.22;;;-22.83;72.37
84677;BME280;74901;55.024;73.254;2024-01-15T04:07:56;101201.09;;;-22.80;73.01
84677;BME280;74901;55.024;73.254;2024-01-15T04:10:25;101205.00;;;-22.76;72.89
84677;BME280;74901;55.024;73.254;2024-01-15T04:12:54;101220.31;;;-22.65;72.75
84677;BME280;74901;55.024;73.254;2024-01-15T04:15:22;101234.94;;;-22.64;72.19
84677;BME280;74901;55.024;73.254;2024-01-15T04:17:52;101223.41;;;-22.61;72.23
84677;BME280;74901;55.024;73.254;2024-01-15T04:20:22;101221.13;;;-22.56;72.44
84677;BME280;74901;55.024;73.254;2024-01-15T04:22:52;101238.06;;;-22.52;72.49
84677;BME280;74901;55.024;73.254;2024-01-15T04:25:21;101238.22;;;-22.54;72.07
84677;BME280;74901;55.024;73.254;2024-01-15T04:27:50;101232.88;;;-22.52;72.43
84677;BME280;74901;55.024;73.254;2024-01-15T04:30:18;101243.28;;;-22.44;72.35
84677;BME280;74901;55.024;73.254;2024-01-15T04:32:47;101251.59;;;-22.33;72.14
84677;BME280;74901;55.024;73.254;2024-01-15T04:35:16;101246.25;;;-22.23;71.92
84677;BME280;74901;55.024;73.254;2024-01-15T04:37:47;101245.28;;;-22.14;72.17
84677;BME280;74901;55.024;73.254;2024-01-15T04:40:16;101211.41;;;-22.30;71.83
84677;BME280;74901;55.024;73.254;2024-01-15T04:42:46;101252.13;;;-22.05;71.84
84677;BME280;74901;55.024;73.254;2024-01-15T04:45:16;101262.72;;;-22.06;71.79
84677;BME280;74901;55.024;73.254;2024-01-15T04:47:46;101268.91;;;-22.07;71.53
84677;BME280;74901;55.024;73.254;2024-01-15T04:50:15;101275.25;;;-22.02;71.67
84677;BME280;74901;55.024;73.254;2024-01-15T04:52:46;101268.44;;;-22.03;71.84
84677;BME280;74901;55.024;73.254;2024-01-15T04:55:15;101302.47;;;-21.96;71.30
84677;BME280;74901;55.024;73.254;2024-01-15T04:57:44;101303.91;;;-21.94;71.82
84677;BME280;74901;55.024;73.254;2024-01-15T05:00:13;101292.22;;;-21.98;71.48
84677;BME280;74901;55.024;73.254;2024-01-15T05:02:42;101312.56;;;-21.93;71.37
84677;BME280;74901;55.024;73.254;2024-01-15T05:05:11;101311.09;;;-21.88;71.05
84677;BME280;74901;55.024;73.254;2024-01-15T05:07:40;101311.56;;;-21.84;71.31
84677;BME280;74901;55.024;73.254;2024-01-15T05:10:11;101326.91;;;-21.81;71.08
84677;BME280;74901;55.024;73.254;2024-01-15T05:12:40;101318.91;;;-21.79;71.55
84677;BME280;74901;55.024;73.254;2024-01-15T05:15:09;101334.38;;;-21.78;71.20
84677;BME280;74901;55.024;73.254;2024-01-15T05:17:38;101324.78;;;-21.86;71.38
84677;BME280;74901;55.024;73.254;2024-01-15T05:20:07;101330.31;;;-21.81;71.21
84677;BME280;74901;55.024;73.254;2024-01-15T05:22:38;101317.94;;;-21.78;70.93
84677;BME280;74901;55.024;73.254;2024-01-15T05:25:10;101325.78;;;-21.78;71.08
84677;BME280;74901;55.024;73.254;2024-01-15T05:27:39;101331.31;;;-21.73;71.34
84677;BME280;74901;55.024;73.254;2024-01-15T05:30:08;101331.78;;;-21.70;70.51
84677;BME280;74901;55.024;73.254;2024-01-15T05:32:38;101338.34;;;-21.66;70.75
84677;BME280;74901;55.024;73.254;2024-01-15T05:35:07;101332.47;;;-21.60;71.22
84677;BME280;74901;55.024;73.254;2024-01-15T05:37:36;101335.88;;;-21.51;70.78
84677;BME280;74901;55.024;73.254;2024-01-15T05:40:06;101345.50;;;-21.44;71.25
84677;BME280;74901;55.024;73.254;2024-01-15T05:42:37;101350.38;;;-21.41;70.89
84677;BME280;74901;55.024;73.254;2024-01-15T05:45:06;101349.09;;;-21.36;70.52
84677;BME280;74901;55.024;73.254;2024-01-15T05:47:35;101344.19;;;-21.31;70.95
84677;BME280;74901;55.024;73.254;2024-01-15T05:50:05;101357.53;;;-21.26;70.84
84677;BME280;74901;55.024;73.254;2024-01-15T05:52:34;101347.78;;;-21.24;70.24
84677;BME280;74901;55.024;73.254;2024-01-15T05:55:03;101372.91;;;-21.23;70.57
84677;BME280;74901;55.024;73.254;2024-01-15T05:57:32;101379.56;;;-21.21;70.62
84677;BME280;74901;55.024;73.254;2024-01-15T06:00:04;101363.75;;;-21.27;70.13
84677;BME280;74901;55.024;73.254;2024-01-15T06:02:33;101398.63;;;-21.12;70.03
84677;BME280;74901;55.024;73.254;2024-01-15T06:05:02;101397.00;;;-21.05;70.04
84677;BME280;74901;55.024;73.254;2024-01-15T06:07:31;101386.19;;;-21.02;69.90
84677;BME280;74901;55.024;73.254;2024-01-15T06:10:06;101400.22;;;-20.95;70.04
84677;BME280;74901;55.024;73.254;2024-01-15T06:12:36;101383.44;;;-21.01;70.14
84677;BME280;74901;55.024;73.254;2024-01-15T06:15:07;101404.28;;;-20.84;70.26
84677;BME280;74901;55.024;73.254;2024-01-15T06:17:36;101411.66;;;-20.80;69.62
84677;BME280;74901;55.024;73.254;2024-01-15T06:20:07;101391.53;;;-20.79;69.91
84677;BME280;74901;55.024;73.254;2024-01-15T06:22:35;101402.00;;;-20.79;70.19
84677;BME280;74901;55.024;73.254;2024-01-15T06:25:06;101407.38;;;-20.73;69.89
84677;BME280;74901;55.024;73.254;2024-01-15T06:27:35;101416.81;;;-20.64;69.23
84677;BME280;74901;55.024;73.254;2024-01-15T06:30:07;101415.34;;;-20.58;69.88
84677;BME280;74901;55.024;73.254;2024-01-15T06:32:36;101415.78;;;-20.46;69.19
84677;BME280;74901;55.024;73.254;2024-01-15T06:35:05;101422.16;;;-20.41;69.25
84677;BME280;74901;55.024;73.254;2024-01-15T06:37:34;101423.63;;;-20.38;69.27
84677;BME280;74901;55.024;73.254;2024-01-15T06:40:04;101444.38;;;-20.37;68.85
84677;BME280;74901;55.024;73.254;2024-01-15T06:42:33;101438.25;;;-20.29;69.31
84677;BME280;74901;55.024;73.254;2024-01-15T06:45:02;101432.84;;;-20.20;69.37
84677;BME280;74901;55.024;73.254;2024-01-15T06:47:33;101444.41;;;-20.06;69.30
84677;BME280;74901;55.024;73.254;2024-01-15T06:50:02;101462.03;;;-20.00;68.82
84677;BME280;74901;55.024;73.254;2024-01-15T06:52:31;101469.81;;;-19.92;68.89
84677;BME280;74901;55.024;73.254;2024-01-15T06:55:00;101459.03;;;-19.89;68.70
84677;BME280;74901;55.024;73.254;2024-01-15T06:57:29;101461.50;;;-19.95;68.57
84677;BME280;74901;55.024;73.254;2024-01-15T06:59:58;101467.84;;;-19.82;69.11
84677;BME280;74901;55.024;73.254;2024-01-15T07:02:27;101483.16;;;-19.70;68.38
84677;BME280;74901;55.024;73.254;2024-01-15T07:04:58;101492.09;;;-19.65;68.31
84677;BME280;74901;55.024;73.254;2024-01-15T07:07:27;101498.75;;;-19.54;68.60
84677;BME280;74901;55.024;73.254;2024-01-15T07:09:57;101475.88;;;-19.60;68.82
84677;BME280;74901;55.024;73.254;2024-01-15T07:12:27;101514.81;;;-19.35;68.25
84677;BME280;74901;55.024;73.254;2024-01-15T07:14:56;101505.94;;;-19.25;68.32
84677;BME280;74901;55.024;73.254;2024-01-15T07:17:25;101462.66;;;-19.67;68.52
84677;BME280;74901;55.024;73.254;2024-01-15T07:19:54;101524.47;;;-19.35;69.04
84677;BME280;74901;55.024;73.254;2024-01-15T07:22:24;101529.06;;;-19.37;69.16
84677;BME280;74901;55.024;73.254;2024-01-15T07:24:54;101535.63;;;-19.41;69.02
84677;BME280;74901;55.024;73.254;2024-01-15T07:27:23;101523.09;;;-19.46;68.75
84677;BME280;74901;55.024;73.254;2024-01-15T07:29:52;101534.50;;;-19.39;69.27
84677;BME280;74901;55.024;73.254;2024-01-15T07:32:20;101538.25;;;-19.41;68.59
84677;BME280;74901;55.024;73.254;2024-01-15T07:34:49;101539.72;;;-19.39;69.03
84677;BME280;74901;55.024;73.254;2024-01-15T07:37:19;101537.94;;;-19.38;68.70
84677;BME280;74901;55.024;73.254;2024-01-15T07:39:49;101532.69;;;-19.38;68.99
84677;BME280;74901;55.024;73.254;2024-01-15T07:42:18;101538.50;;;-19.28;68.83
84677;BME280;74901;55.024;73.254;2024-01-15T07:44:47;101536.56;;;-19.26;68.73
84677;BME280;74901;55.024;73.254;2024-01-15T07:47:17;101536.34;;;-19.24;68.20
84677;BME280;74901;55.024;73.254;2024-01-15T07:49:47;101540.00;;;-19.25;68.32
84677;BME280;74901;55.024;73.254;2024-01-15T07:52:17;101544.09;;;-19.31;68.04
84677;BME280;74901;55.024;73.254;2024-01-15T07:54:48;101545.09;;;-19.32;68.24
84677;BME280;74901;55.024;73.254;2024-01-15T07:57:17;101546.91;;;-19.33;68.82
84677;BME280;74901;55.024;73.254;2024-01-15T07:59:46;101543.09;;;-19.30;68.03
84677;BME280;74901;55.024;73.254;2024-01-15T08:02:15;101544.56;;;-19.27;68.20
84677;BME280;74901;55.024;73.254;2024-01-15T08:04:45;101566.28;;;-19.19;68.45
84677;BME280;74901;55.024;73.254;2024-01-15T08:07:14;101571.03;;;-19.14;68.37
84677;BME280;74901;55.024;73.254;2024-01-15T08:09:44;101568.69;;;-19.09;68.03
84677;BME280;74901;55.024;73.254;2024-01-15T08:12:17;101562.94;;;-19.05;67.78
84677;BME280;74901;55.024;73.254;2024-01-15T08:14:46;101556.00;;;-18.98;67.89
84677;BME280;74901;55.024;73.254;2024-01-15T08:17:15;101565.50;;;-18.97;67.51
84677;BME280;74901;55.024;73.254;2024-01-15T08:19:44;101577.25;;;-18.93;67.84
84677;BME280;74901;55.024;73.254;2024-01-15T08:22:13;101572.72;;;-18.99;67.40
84677;BME280;74901;55.024;73.254;2024-01-15T08:24:42;101583.13;;;-18.82;67.58
84677;BME280;74901;55.024;73.254;2024-01-15T08:27:10;101557.81;;;-18.98;67.10
84677;BME280;74901;55.024;73.254;2024-01-15T08:29:41;101556.00;;;-18.98;66.66
84677;BME280;74901;55.024;73.254;2024-01-15T08:32:10;101586.47;;;-18.74;66.38
84677;BME280;74901;55.024;73.254;2024-01-15T08:34:42;101598.97;;;-18.76;66.52
84677;BME280;74901;55.024;73.254;2024-01-15T08:37:11;101606.16;;;-18.78;66.31
84677;BME280;74901;55.024;73.254;2024-01-15T08:39:40;101629.28;;;-18.81;66.00
84677;BME280;74901;55.024;73.254;2024-01-15T08:42:09;101607.69;;;-18.83;65.61
84677;BME280;74901;55.024;73.254;2024-01-15T08:44:41;101621.59;;;-18.83;65.95
84677;BME280;74901;55.024;73.254;2024-01-15T08:47:11;101615.19;;;-18.80;66.37
84677;BME280;74901;55.024;73.254;2024-01-15T08:49:55;101615.84;;;-18.78;66.47
84677;BME280;74901;55.024;73.254;2024-01-15T08:52:28;101595.03;;;-18.80;65.68
84677;BME280;74901;55.024;73.254;2024-01-15T08:55:00;101613.38;;;-18.80;66.00
84677;BME280;74901;55.024;73.254;2024-01-15T08:57:32;101605.00;;;-18.75;65.87
84677;BME280;74901;55.024;73.254;2024-01-15T09:00:05;101620.09;;;-18.77;65.86
84677;BME280;74901;55.024;73.254;2024-01-15T09:02:38;101632.03;;;-18.75;65.87
84677;BME280;74901;55.024;73.254;2024-01-15T09:05:09;101618.75;;;-18.73;66.09
84677;BME280;74901;55.024;73.254;2024-01-15T09:07:38;101622.47;;;-18.68;65.70
84677;BME280;74901;55.024;73.254;2024-01-15T09:10:12;101626.72;;;-18.67;65.90
84677;BME280;74901;55.024;73.254;2024-01-15T09:12:47;101627.84;;;-18.61;65.89
84677;BME280;74901;55.024;73.254;2024-01-15T09:15:31;101648.75;;;-18.53;66.16
84677;BME280;74901;55.024;73.254;2024-01-15T09:18:01;101655.25;;;-18.49;66.38
84677;BME280;74901;55.024;73.254;2024-01-15T09:20:39;101647.88;;;-18.45;66.33
84677;BME280;74901;55.024;73.254;2024-01-15T09:23:13;101649.47;;;-18.44;66.14
84677;BME280;74901;55.024;73.254;2024-01-15T09:25:45;101652.31;;;-18.46;66.08
84677;BME280;74901;55.024;73.254;2024-01-15T09:28:21;101661.44;;;-18.42;66.18
84677;BME280;74901;55.024;73.254;2024-01-15T09:30:54;101656.19;;;-18.42;65.82
84677;BME280;74901;55.024;73.254;2024-01-15T09:33:23;101692.75;;;-18.40;66.08
84677;BME280;74901;55.024;73.254;2024-01-15T09:35:51;101682.59;;;-18.43;66.00
84677;BME280;74901;55.024;73.254;2024-01-15T09:38:28;101676.53;;;-18.44;66.43
84677;BME280;74901;55.024;73.254;2024-01-15T09:40:59;101688.13;;;-18.38;66.48
84677;BME280;74901;55.024;73.254;2024-01-15T09:43:28;101685.34;;;-18.37;66.46
84677;BME280;74901;55.024;73.254;2024-01-15T09:46:00;101686.31;;;-18.38;66.10
84677;BME280;74901;55.024;73.254;2024-01-15T09:48:30;101699.78;;;-18.41;66.36
84677;BME280;74901;55.024;73.254;2024-01-15T09:53:48;101699.84;;;-18.49;66.98
84677;BME280;74901;55.024;73.254;2024-01-15T09:56:19;101708.22;;;-18.54;66.98
84677;BME280;74901;55.024;73.254;2024-01-15T09:58:48;101704.34;;;-18.58;66.57
84677;BME280;74901;55.024;73.254;2024-01-15T10:01:23;101712.38;;;-18.59;66.94
84677;BME280;74901;55.024;73.254;2024-01-15T10:03:53;101712.22;;;-18.58;66.75
84677;BME280;74901;55.024;73.254;2024-01-15T10:06:27;101723.78;;;-18.52;66.99
84677;BME280;74901;55.024;73.254;2024-01-15T10:08:59;101735.50;;;-18.63;66.90
84677;BME280;74901;55.024;73.254;2024-01-15T10:11:36;101742.91;;;-18.74;66.75
84677;BME280;74901;55.024;73.254;2024-01-15T10:14:09;101729.06;;;-18.91;66.31
84677;BME280;74901;55.024;73.254;2024-01-15T10:16:41;101742.69;;;-18.96;66.93
84677;BME280;74901;55.024;73.254;2024-01-15T10:19:11;101738.63;;;-19.06;67.08
84677;BME280;74901;55.024;73.254;2024-01-15T10:21:43;101750.09;;;-19.07;67.20
84677;BME280;74901;55.024;73.254;2024-01-15T10:24:14;101750.59;;;-19.12;67.09
84677;BME280;74901;55.024;73.254;2024-01-15T10:26:44;101761.25;;;-19.13;66.72
84677;BME280;74901;55.024;73.254;2024-01-15T10:29:15;101761.72;;;-19.18;66.60
84677;BME280;74901;55.024;73.254;2024-01-15T10:31:59;101751.28;;;-19.26;67.27
84677;BME280;74901;55.024;73.254;2024-01-15T10:34:30;101771.38;;;-19.18;67.60
84677;BME280;74901;55.024;73.254;2024-01-15T10:36:59;101770.25;;;-19.16;66.85
84677;BME280;74901;55.024;73.254;2024-01-15T10:39:37;101781.19;;;-19.12;67.69
84677;BME280;74901;55.024;73.254;2024-01-15T10:42:08;101775.63;;;-17.78;66.30
84677;BME280;74901;55.024;73.254;2024-01-15T10:44:37;101772.00;;;-15.73;63.79
84677;BME280;74901;55.024;73.254;2024-01-15T10:47:09;101782.00;;;-14.50;60.64
84677;BME280;74901;55.024;73.254;2024-01-15T10:49:39;101773.78;;;-13.95;60.00
84677;BME280;74901;55.024;73.254;2024-01-15T10:52:10;101778.31;;;-13.88;58.73
84677;BME280;74901;55.024;73.254;2024-01-15T10:54:41;101780.03;;;-14.22;58.92
84677;BME280;74901;55.024;73.254;2024-01-15T10:57:14;101800.34;;;-14.70;59.52
84677;BME280;74901;55.024;73.254;2024-01-15T10:59:45;101797.88;;;-15.34;60.69
84677;BME280;74901;55.024;73.254;2024-01-15T11:02:17;101804.69;;;-16.24;61.94
84677;BME280;74901;55.024;73.254;2024-01-15T11:04:46;101805.19;;;-17.23;64.22
84677;BME280;74901;55.024;73.254;2024-01-15T11:07:22;101804.34;;;-18.07;66.15
84677;BME280;74901;55.024;73.254;2024-01-15T11:09:52;101819.56;;;-18.64;66.59
84677;BME280;74901;55.024;73.254;2024-01-15T11:12:21;101824.59;;;-19.10;68.16
84677;BME280;74901;55.024;73.254;2024-01-15T11:14:50;101817.06;;;-19.37;68.87
84677;BME280;74901;55.024;73.254;2024-01-15T11:17:23;101818.75;;;-19.60;68.84
84677;BME280;74901;55.024;73.254;2024-01-15T11:19:53;101826.13;;;-19.72;69.33
84677;BME280;74901;55.024;73.254;2024-01-15T11:22:49;101829.19;;;-19.85;69.09
84677;BME280;74901;55.024;73.254;2024-01-15T11:25:19;101829.38;;;-19.94;68.85
84677;BME280;74901;55.024;73.254;2024-01-15T11:27:50;101836.53;;;-19.96;69.00
84677;BME280;74901;55.024;73.254;2024-01-15T11:30:21;101833.09;;;-20.05;68.95
84677;BME280;74901;55.024;73.254;2024-01-15T11:32:55;101839.28;;;-20.14;68.95
84677;BME280;74901;55.024;73.254;2024-01-15T11:35:50;101835.19;;;-20.25;69.15
84677;BME280;74901;55.024;73.254;2024-01-15T11:38:28;101826.34;;;-20.32;68.41
84677;BME280;74901;55.024;73.254;2024-01-15T11:40:59;101829.28;;;-20.35;68.84
84677;BME280;74901;55.024;73.254;2024-01-15T11:43:28;101830.56;;;-20.39;68.56
84677;BME280;74901;55.024;73.254;2024-01-15T11:46:02;101833.50;;;-20.42;68.78
84677;BME280;74901;55.024;73.254;2024-01-15T11:48:43;101833.00;;;-20.45;68.78
84677;BME280;74901;55.024;73.254;2024-01-15T11:51:15;101829.72;;;-20.47;68.94
84677;BME280;74901;55.024;73.254;2024-01-15T11:53:48;101837.88;;;-20.50;69.13
84677;BME280;74901;55.024;73.254;2024-01-15T11:56:22;101826.41;;;-20.58;68.90
84677;BME280;74901;55.024;73.254;2024-01-15T11:58:52;101807.72;;;-20.71;68.55
84677;BME280;74901;55.024;73.254;2024-01-15T12:01:21;101838.72;;;-20.42;68.33
84677;BME280;74901;55.024;73.254;2024-01-15T12:03:52;101839.91;;;-20.36;68.33
84677;BME280;74901;55.024;73.254;2024-01-15T12:06:21;101839.03;;;-20.45;68.01
84677;BME280;74901;55.024;73.254;2024-01-15T12:08:50;101835.28;;;-20.50;68.41
84677;BME280;74901;55.024;73.254;2024-01-15T12:11:20;101839.97;;;-20.54;68.91
84677;BME280;74901;55.024;73.254;2024-01-15T12:13:53;101848.00;;;-20.55;69.23
84677;BME280;74901;55.024;73.254;2024-01-15T12:16:24;101845.09;;;-20.44;69.00
84677;BME280;74901;55.024;73.254;2024-01-15T12:18:54;101849.03;;;-20.40;68.11
84677;BME280;74901;55.024;73.254;2024-01-15T12:21:26;101854.72;;;-20.45;68.76
84677;BME280;74901;55.024;73.254;2024-01-15T12:23:56;101864.16;;;-20.52;68.88
84677;BME280;74901;55.024;73.254;2024-01-15T12:26:25;101860.38;;;-20.58;68.60
84677;BME280;74901;55.024;73.254;2024-01-15T12:28:55;101864.44;;;-20.63;68.69
84677;BME280;74901;55.024;73.254;2024-01-15T12:31:25;101874.91;;;-20.63;68.63
84677;BME280;74901;55.024;73.254;2024-01-15T12:33:57;101870.78;;;-20.66;69.02
84677;BME280;74901;55.024;73.254;2024-01-15T12:36:26;101880.13;;;-20.63;68.91
84677;BME280;74901;55.024;73.254;2024-01-15T12:38:59;101881.75;;;-20.62;68.72
84677;BME280;74901;55.024;73.254;2024-01-15T12:41:28;101881.91;;;-20.64;69.04
84677;BME280;74901;55.024;73.254;2024-01-15T12:43:57;101889.59;;;-20.62;69.18
84677;BME280;74901;55.024;73.254;2024-01-15T12:46:26;101894.16;;;-20.64;68.99
84677;BME280;74901;55.024;73.254;2024-01-15T12:49:00;101895.88;;;-20.73;68.82
84677;BME280;74901;55.024;73.254;2024-01-15T12:51:34;101910.78;;;-20.73;69.48